This is the latest recevied weather packets stored in our database for station/object EB2EMZ-14. If no packets are shown the sender has not sent any weather packets the latest 1 day(s).
| Time | Temp. | Humidity | Pressure | Rain* | Wind** | Luminosity | Snow |
|---|---|---|---|---|---|---|---|
| 1778067310 | 18.89° C | 55% | 1012.8 hPa | 0 mm | - | 0 W/m² | - |
| 1778067010 | 19.44° C | 54% | 1012.6 hPa | 0 mm | - | 0 W/m² | - |
| 1778066710 | 19.44° C | 54% | 1012.5 hPa | 0 mm | - | 0 W/m² | - |
| 1778063710 | 17.78° C | 58% | 1012.6 hPa | 0 mm | - | 0 W/m² | - |
| 1778063110 | 17.22° C | 60% | 1012.7 hPa | 0 mm | - | 0 W/m² | - |
| 1778062810 | 16.67° C | 58% | 1012.6 hPa | 0 mm | - | 0 W/m² | - |
| 1778061610 | 17.22° C | 61% | 1012.5 hPa | 0 mm | - | 0 W/m² | - |
| 1778059210 | 16.11° C | 61% | 1012.5 hPa | 0 mm | - | 0 W/m² | - |
| 1778058313 | 16.67° C | 60% | 1012.4 hPa | 0 mm | - | 0 W/m² | - |
| 1778056810 | 18.89° C | 57% | 1012.4 hPa | 0 mm | - | 0 W/m² | - |
| 1778056510 | 18.89° C | 57% | 1012.5 hPa | 0 mm | - | 0 W/m² | - |
| 1778055910 | 18.33° C | 58% | 1012.5 hPa | 0 mm | - | 0 W/m² | - |
| 1778055610 | 18.89° C | 57% | 1012.4 hPa | 0 mm | - | 0 W/m² | - |
| 1778054711 | 20° C | 56% | 1012.4 hPa | 0 mm | - | 0 W/m² | - |
| 1778054110 | 20.56° C | 56% | 1012.5 hPa | 0 mm | - | 0 W/m² | - |
| 1778052910 | 21.11° C | 59% | 1012.2 hPa | 0 mm | - | 0 W/m² | - |
| 1778052609 | 20.56° C | 60% | 1012.2 hPa | 0 mm | - | 0 W/m² | - |
| 1778052309 | 20.56° C | 63% | 1012.3 hPa | 0 mm | - | 0 W/m² | - |
| 1778051410 | 16.11° C | 83% | 1012.2 hPa | 0 mm | - | 0 W/m² | - |
| 1778050511 | 9.44° C | 92% | 1012.2 hPa | 0 mm | - | 0 W/m² | - |
| 1778049910 | 9.44° C | 92% | 1012.3 hPa | 0 mm | - | 0 W/m² | - |
| 1778049611 | 9.44° C | 92% | 1012.2 hPa | 0 mm | - | 0 W/m² | - |
| 1778049310 | 10° C | 93% | 1012 hPa | 0 mm | - | 0 W/m² | - |
| 1778049010 | 10° C | 94% | 1012.1 hPa | 0 mm | - | 0 W/m² | - |
| 1778048710 | 8.33° C | 94% | 1012.1 hPa | 0 mm | - | 0 W/m² | - |
* Rain latest hour (hover to see other rain measurements)
** Current wind speed in m/s (hover to see current wind gust speed)